sensor_id;sensor_type;location;lat;lon;timestamp;pressure;altitude;pressure_sealevel;temperature;humidity
16793;BME280;8513;42.662;23.350;2022-07-23T00:00:30;95194.63;;;24.42;36.38
16793;BME280;8513;42.662;23.350;2022-07-23T00:02:56;95190.66;;;24.21;36.63
16793;BME280;8513;42.662;23.350;2022-07-23T00:05:21;95191.81;;;24.02;37.92
16793;BME280;8513;42.662;23.350;2022-07-23T00:07:46;95196.31;;;23.77;38.46
16793;BME280;8513;42.662;23.350;2022-07-23T00:10:12;95189.06;;;23.78;38.96
16793;BME280;8513;42.662;23.350;2022-07-23T00:12:39;95188.06;;;23.91;38.71
16793;BME280;8513;42.662;23.350;2022-07-23T00:15:05;95194.78;;;23.82;39.54
16793;BME280;8513;42.662;23.350;2022-07-23T00:17:32;95201.47;;;23.79;39.98
16793;BME280;8513;42.662;23.350;2022-07-23T00:19:57;95201.69;;;23.77;40.14
16793;BME280;8513;42.662;23.350;2022-07-23T00:22:23;95202.75;;;23.76;40.16
16793;BME280;8513;42.662;23.350;2022-07-23T00:24:48;95208.13;;;23.76;40.26
16793;BME280;8513;42.662;23.350;2022-07-23T00:27:14;95195.97;;;23.86;40.78
16793;BME280;8513;42.662;23.350;2022-07-23T00:29:39;95198.78;;;23.79;41.33
16793;BME280;8513;42.662;23.350;2022-07-23T00:32:05;95207.78;;;23.85;40.54
16793;BME280;8513;42.662;23.350;2022-07-23T00:34:30;95212.22;;;23.79;40.40
16793;BME280;8513;42.662;23.350;2022-07-23T00:36:56;95202.44;;;23.66;40.41
16793;BME280;8513;42.662;23.350;2022-07-23T00:39:21;95211.09;;;23.68;40.37
16793;BME280;8513;42.662;23.350;2022-07-23T00:41:48;95206.47;;;23.75;39.76
16793;BME280;8513;42.662;23.350;2022-07-23T00:44:32;95203.47;;;23.65;39.43
16793;BME280;8513;42.662;23.350;2022-07-23T00:46:58;95202.06;;;23.63;38.77
16793;BME280;8513;42.662;23.350;2022-07-23T00:49:26;95211.97;;;23.62;38.38
16793;BME280;8513;42.662;23.350;2022-07-23T00:51:52;95208.28;;;23.63;38.15
16793;BME280;8513;42.662;23.350;2022-07-23T00:54:19;95200.91;;;23.70;38.15
16793;BME280;8513;42.662;23.350;2022-07-23T00:56:45;95207.06;;;23.59;38.64
16793;BME280;8513;42.662;23.350;2022-07-23T00:59:11;95208.34;;;23.56;38.55
16793;BME280;8513;42.662;23.350;2022-07-23T01:01:37;95210.34;;;23.61;38.49
16793;BME280;8513;42.662;23.350;2022-07-23T01:04:03;95203.41;;;23.42;39.10
16793;BME280;8513;42.662;23.350;2022-07-23T01:06:32;95202.06;;;23.32;39.21
16793;BME280;8513;42.662;23.350;2022-07-23T01:09:00;95194.44;;;23.18;39.82
16793;BME280;8513;42.662;23.350;2022-07-23T01:11:25;95193.75;;;23.22;39.76
16793;BME280;8513;42.662;23.350;2022-07-23T01:13:51;95194.19;;;23.19;39.70
16793;BME280;8513;42.662;23.350;2022-07-23T01:16:16;95194.22;;;23.01;40.30
16793;BME280;8513;42.662;23.350;2022-07-23T01:18:42;95194.03;;;22.96;40.44
16793;BME280;8513;42.662;23.350;2022-07-23T01:21:10;95196.34;;;22.92;40.57
16793;BME280;8513;42.662;23.350;2022-07-23T01:23:38;95188.25;;;22.99;40.48
16793;BME280;8513;42.662;23.350;2022-07-23T01:26:03;95187.97;;;23.07;40.32
16793;BME280;8513;42.662;23.350;2022-07-23T01:28:29;95191.47;;;23.07;40.02
16793;BME280;8513;42.662;23.350;2022-07-23T01:30:54;95195.19;;;23.06;40.44
16793;BME280;8513;42.662;23.350;2022-07-23T01:33:19;95194.50;;;22.93;40.72
16793;BME280;8513;42.662;23.350;2022-07-23T01:35:45;95188.69;;;22.77;41.26
16793;BME280;8513;42.662;23.350;2022-07-23T01:38:10;95196.16;;;22.75;41.04
16793;BME280;8513;42.662;23.350;2022-07-23T01:40:36;95187.72;;;22.72;41.07
16793;BME280;8513;42.662;23.350;2022-07-23T01:43:01;95197.94;;;22.81;41.20
16793;BME280;8513;42.662;23.350;2022-07-23T01:45:27;95183.19;;;22.72;41.19
16793;BME280;8513;42.662;23.350;2022-07-23T01:47:52;95187.34;;;22.68;41.17
16793;BME280;8513;42.662;23.350;2022-07-23T01:50:18;95195.84;;;22.65;41.26
16793;BME280;8513;42.662;23.350;2022-07-23T01:52:43;95192.09;;;22.66;41.42
16793;BME280;8513;42.662;23.350;2022-07-23T01:55:09;95190.94;;;22.62;41.52
16793;BME280;8513;42.662;23.350;2022-07-23T01:57:34;95191.59;;;22.57;41.61
16793;BME280;8513;42.662;23.350;2022-07-23T01:59:59;95190.53;;;22.58;41.48
16793;BME280;8513;42.662;23.350;2022-07-23T02:02:25;95189.88;;;22.63;41.31
16793;BME280;8513;42.662;23.350;2022-07-23T02:04:50;95196.78;;;22.52;41.42
16793;BME280;8513;42.662;23.350;2022-07-23T02:07:16;95194.56;;;22.49;41.31
16793;BME280;8513;42.662;23.350;2022-07-23T02:09:42;95192.53;;;22.44;41.86
16793;BME280;8513;42.662;23.350;2022-07-23T02:12:08;95204.88;;;22.27;42.16
16793;BME280;8513;42.662;23.350;2022-07-23T02:14:33;95194.16;;;22.27;42.36
16793;BME280;8513;42.662;23.350;2022-07-23T02:16:59;95198.47;;;22.28;42.16
16793;BME280;8513;42.662;23.350;2022-07-23T02:19:24;95201.78;;;22.23;42.51
16793;BME280;8513;42.662;23.350;2022-07-23T02:21:50;95199.06;;;22.30;42.47
16793;BME280;8513;42.662;23.350;2022-07-23T02:24:16;95200.59;;;22.19;42.95
16793;BME280;8513;42.662;23.350;2022-07-23T02:26:41;95198.91;;;22.25;43.08
16793;BME280;8513;42.662;23.350;2022-07-23T02:29:07;95198.81;;;22.07;44.11
16793;BME280;8513;42.662;23.350;2022-07-23T02:31:32;95202.84;;;22.16;44.00
16793;BME280;8513;42.662;23.350;2022-07-23T02:33:58;95202.78;;;22.29;43.69
16793;BME280;8513;42.662;23.350;2022-07-23T02:36:23;95204.50;;;22.17;43.04
16793;BME280;8513;42.662;23.350;2022-07-23T02:38:49;95195.25;;;22.19;43.09
16793;BME280;8513;42.662;23.350;2022-07-23T02:41:14;95197.28;;;22.17;44.10
16793;BME280;8513;42.662;23.350;2022-07-23T02:43:40;95202.19;;;22.27;43.85
16793;BME280;8513;42.662;23.350;2022-07-23T02:46:05;95207.56;;;22.27;42.71
16793;BME280;8513;42.662;23.350;2022-07-23T02:48:30;95201.88;;;22.10;43.44
16793;BME280;8513;42.662;23.350;2022-07-23T02:50:56;95210.75;;;22.11;43.80
16793;BME280;8513;42.662;23.350;2022-07-23T02:53:25;95213.53;;;21.97;43.31
16793;BME280;8513;42.662;23.350;2022-07-23T02:55:51;95213.13;;;21.94;43.07
16793;BME280;8513;42.662;23.350;2022-07-23T02:58:17;95211.78;;;21.85;42.81
16793;BME280;8513;42.662;23.350;2022-07-23T03:00:42;95210.78;;;21.79;42.21
16793;BME280;8513;42.662;23.350;2022-07-23T03:03:08;95216.72;;;21.81;42.29
16793;BME280;8513;42.662;23.350;2022-07-23T03:05:34;95224.53;;;21.83;42.32
16793;BME280;8513;42.662;23.350;2022-07-23T03:07:59;95220.78;;;21.90;42.14
16793;BME280;8513;42.662;23.350;2022-07-23T03:10:24;95223.72;;;21.82;42.51
16793;BME280;8513;42.662;23.350;2022-07-23T03:12:50;95217.78;;;21.80;42.12
16793;BME280;8513;42.662;23.350;2022-07-23T03:15:15;95229.47;;;21.86;42.21
16793;BME280;8513;42.662;23.350;2022-07-23T03:17:41;95224.38;;;21.77;42.53
16793;BME280;8513;42.662;23.350;2022-07-23T03:20:07;95228.53;;;21.73;43.92
16793;BME280;8513;42.662;23.350;2022-07-23T03:22:33;95231.78;;;21.75;43.50
16793;BME280;8513;42.662;23.350;2022-07-23T03:24:58;95231.50;;;21.58;45.83
16793;BME280;8513;42.662;23.350;2022-07-23T03:27:26;95232.41;;;21.32;47.00
16793;BME280;8513;42.662;23.350;2022-07-23T03:29:53;95240.34;;;21.59;46.61
16793;BME280;8513;42.662;23.350;2022-07-23T03:32:19;95245.50;;;21.54;46.92
16793;BME280;8513;42.662;23.350;2022-07-23T03:34:45;95249.03;;;21.54;46.67
16793;BME280;8513;42.662;23.350;2022-07-23T03:37:10;95231.63;;;21.39;47.51
16793;BME280;8513;42.662;23.350;2022-07-23T03:39:36;95239.03;;;20.65;50.09
16793;BME280;8513;42.662;23.350;2022-07-23T03:42:02;95237.44;;;21.15;48.50
16793;BME280;8513;42.662;23.350;2022-07-23T03:44:27;95236.72;;;21.40;47.89
16793;BME280;8513;42.662;23.350;2022-07-23T03:46:53;95245.31;;;21.55;47.24
16793;BME280;8513;42.662;23.350;2022-07-23T03:49:18;95241.59;;;21.56;47.29
16793;BME280;8513;42.662;23.350;2022-07-23T03:51:44;95241.94;;;21.67;46.94
16793;BME280;8513;42.662;23.350;2022-07-23T03:54:09;95244.78;;;21.72;47.00
16793;BME280;8513;42.662;23.350;2022-07-23T03:56:35;95252.78;;;21.78;46.97
16793;BME280;8513;42.662;23.350;2022-07-23T03:59:00;95253.00;;;21.77;46.98
16793;BME280;8513;42.662;23.350;2022-07-23T04:01:26;95245.16;;;21.75;47.03
16793;BME280;8513;42.662;23.350;2022-07-23T04:03:51;95246.41;;;21.73;46.75
16793;BME280;8513;42.662;23.350;2022-07-23T04:06:17;95251.38;;;21.76;46.93
16793;BME280;8513;42.662;23.350;2022-07-23T04:08:43;95242.94;;;21.72;47.26
16793;BME280;8513;42.662;23.350;2022-07-23T04:11:08;95240.75;;;21.63;47.41
16793;BME280;8513;42.662;23.350;2022-07-23T04:13:33;95242.19;;;21.58;47.63
16793;BME280;8513;42.662;23.350;2022-07-23T04:15:59;95248.97;;;21.61;47.53
16793;BME280;8513;42.662;23.350;2022-07-23T04:18:24;95250.81;;;21.09;49.19
16793;BME280;8513;42.662;23.350;2022-07-23T04:20:53;95246.84;;;21.25;49.09
16793;BME280;8513;42.662;23.350;2022-07-23T04:23:18;95250.13;;;20.55;51.04
16793;BME280;8513;42.662;23.350;2022-07-23T04:25:44;95248.63;;;20.99;50.11
16793;BME280;8513;42.662;23.350;2022-07-23T04:28:09;95255.41;;;20.95;50.67
16793;BME280;8513;42.662;23.350;2022-07-23T04:30:35;95264.84;;;21.04;50.58
16793;BME280;8513;42.662;23.350;2022-07-23T04:33:01;95261.97;;;21.57;48.83
16793;BME280;8513;42.662;23.350;2022-07-23T04:35:26;95257.97;;;21.73;48.36
16793;BME280;8513;42.662;23.350;2022-07-23T04:37:52;95257.88;;;21.87;48.16
16793;BME280;8513;42.662;23.350;2022-07-23T04:40:17;95258.19;;;22.03;47.50
16793;BME280;8513;42.662;23.350;2022-07-23T04:42:43;95271.50;;;22.10;47.39
16793;BME280;8513;42.662;23.350;2022-07-23T04:45:09;95266.31;;;22.15;47.19
16793;BME280;8513;42.662;23.350;2022-07-23T04:47:34;95258.72;;;22.19;46.66
16793;BME280;8513;42.662;23.350;2022-07-23T04:50:00;95268.78;;;22.17;46.72
16793;BME280;8513;42.662;23.350;2022-07-23T04:52:25;95268.56;;;22.25;46.38
16793;BME280;8513;42.662;23.350;2022-07-23T04:54:50;95267.84;;;22.36;45.12
16793;BME280;8513;42.662;23.350;2022-07-23T04:57:16;95277.84;;;22.48;44.60
16793;BME280;8513;42.662;23.350;2022-07-23T04:59:41;95274.41;;;22.40;46.38
16793;BME280;8513;42.662;23.350;2022-07-23T05:02:07;95275.59;;;22.44;45.60
16793;BME280;8513;42.662;23.350;2022-07-23T05:04:32;95271.44;;;22.49;45.30
16793;BME280;8513;42.662;23.350;2022-07-23T05:06:58;95268.59;;;22.43;45.57
16793;BME280;8513;42.662;23.350;2022-07-23T05:09:24;95270.56;;;22.55;45.15
16793;BME280;8513;42.662;23.350;2022-07-23T05:11:50;95276.53;;;22.57;45.36
16793;BME280;8513;42.662;23.350;2022-07-23T05:14:15;95272.97;;;22.63;45.38
16793;BME280;8513;42.662;23.350;2022-07-23T05:16:41;95269.63;;;22.67;45.15
16793;BME280;8513;42.662;23.350;2022-07-23T05:19:06;95272.66;;;22.71;44.53
16793;BME280;8513;42.662;23.350;2022-07-23T05:21:32;95281.53;;;22.72;45.06
16793;BME280;8513;42.662;23.350;2022-07-23T05:23:58;95280.28;;;22.74;44.94
16793;BME280;8513;42.662;23.350;2022-07-23T05:26:23;95275.34;;;22.71;45.31
16793;BME280;8513;42.662;23.350;2022-07-23T05:28:50;95283.75;;;22.75;45.74
16793;BME280;8513;42.662;23.350;2022-07-23T05:31:15;95285.50;;;22.87;45.03
16793;BME280;8513;42.662;23.350;2022-07-23T05:33:40;95283.59;;;22.95;44.41
16793;BME280;8513;42.662;23.350;2022-07-23T05:36:06;95282.97;;;22.93;44.50
16793;BME280;8513;42.662;23.350;2022-07-23T05:38:32;95282.25;;;23.04;44.44
16793;BME280;8513;42.662;23.350;2022-07-23T05:40:58;95282.41;;;23.09;44.02
16793;BME280;8513;42.662;23.350;2022-07-23T05:43:23;95278.91;;;23.08;43.17
16793;BME280;8513;42.662;23.350;2022-07-23T05:45:49;95281.31;;;23.17;42.97
16793;BME280;8513;42.662;23.350;2022-07-23T05:48:14;95274.81;;;23.24;42.93
16793;BME280;8513;42.662;23.350;2022-07-23T05:50:40;95281.25;;;23.23;42.86
16793;BME280;8513;42.662;23.350;2022-07-23T05:53:05;95281.09;;;23.37;42.45
16793;BME280;8513;42.662;23.350;2022-07-23T05:55:30;95276.88;;;23.41;42.22
16793;BME280;8513;42.662;23.350;2022-07-23T05:57:57;95274.50;;;23.51;41.69
16793;BME280;8513;42.662;23.350;2022-07-23T06:00:23;95277.19;;;23.51;41.99
16793;BME280;8513;42.662;23.350;2022-07-23T06:02:51;95274.19;;;23.59;42.18
16793;BME280;8513;42.662;23.350;2022-07-23T06:05:17;95275.13;;;23.65;42.97
16793;BME280;8513;42.662;23.350;2022-07-23T06:07:43;95277.91;;;23.76;42.13
16793;BME280;8513;42.662;23.350;2022-07-23T06:10:08;95272.09;;;23.80;41.73
16793;BME280;8513;42.662;23.350;2022-07-23T06:12:34;95265.19;;;23.84;41.56
16793;BME280;8513;42.662;23.350;2022-07-23T06:15:00;95265.13;;;23.90;41.37
16793;BME280;8513;42.662;23.350;2022-07-23T06:17:26;95258.22;;;23.94;41.48
16793;BME280;8513;42.662;23.350;2022-07-23T06:19:52;95266.19;;;24.01;41.17
16793;BME280;8513;42.662;23.350;2022-07-23T06:22:17;95271.25;;;24.09;40.47
16793;BME280;8513;42.662;23.350;2022-07-23T06:24:43;95272.88;;;24.10;41.15
16793;BME280;8513;42.662;23.350;2022-07-23T06:27:08;95264.38;;;24.25;40.17
16793;BME280;8513;42.662;23.350;2022-07-23T06:29:33;95261.09;;;24.23;39.79
16793;BME280;8513;42.662;23.350;2022-07-23T06:31:59;95257.34;;;24.24;40.32
16793;BME280;8513;42.662;23.350;2022-07-23T06:34:24;95261.44;;;24.27;39.11
16793;BME280;8513;42.662;23.350;2022-07-23T06:36:50;95258.91;;;24.32;38.84
16793;BME280;8513;42.662;23.350;2022-07-23T06:39:15;95259.81;;;24.37;38.25
16793;BME280;8513;42.662;23.350;2022-07-23T06:41:41;95261.97;;;24.47;38.63
16793;BME280;8513;42.662;23.350;2022-07-23T06:44:07;95269.47;;;24.45;40.15
16793;BME280;8513;42.662;23.350;2022-07-23T06:46:32;95263.59;;;24.48;39.65
16793;BME280;8513;42.662;23.350;2022-07-23T06:48:58;95265.38;;;24.54;37.24
16793;BME280;8513;42.662;23.350;2022-07-23T06:51:24;95263.16;;;24.63;36.90
16793;BME280;8513;42.662;23.350;2022-07-23T06:53:49;95260.59;;;24.68;36.88
16793;BME280;8513;42.662;23.350;2022-07-23T06:56:15;95257.91;;;24.68;38.16
16793;BME280;8513;42.662;23.350;2022-07-23T06:58:40;95259.28;;;24.59;38.73
16793;BME280;8513;42.662;23.350;2022-07-23T07:01:06;95258.38;;;24.77;37.52
16793;BME280;8513;42.662;23.350;2022-07-23T07:03:31;95254.50;;;24.84;37.20
16793;BME280;8513;42.662;23.350;2022-07-23T07:05:56;95255.66;;;25.00;37.09
16793;BME280;8513;42.662;23.350;2022-07-23T07:08:23;95249.47;;;25.00;37.93
16793;BME280;8513;42.662;23.350;2022-07-23T07:10:48;95247.47;;;24.95;37.54
16793;BME280;8513;42.662;23.350;2022-07-23T07:13:14;95246.78;;;25.00;37.20
16793;BME280;8513;42.662;23.350;2022-07-23T07:15:39;95248.38;;;25.13;36.61
16793;BME280;8513;42.662;23.350;2022-07-23T07:18:05;95248.63;;;25.11;37.21
16793;BME280;8513;42.662;23.350;2022-07-23T07:20:30;95242.19;;;25.24;37.18
16793;BME280;8513;42.662;23.350;2022-07-23T07:22:56;95237.53;;;25.19;36.55
16793;BME280;8513;42.662;23.350;2022-07-23T07:25:21;95240.75;;;25.33;36.84
16793;BME280;8513;42.662;23.350;2022-07-23T07:27:47;95240.81;;;25.50;36.29
16793;BME280;8513;42.662;23.350;2022-07-23T07:30:13;95235.53;;;25.55;36.28
16793;BME280;8513;42.662;23.350;2022-07-23T07:32:38;95230.50;;;25.59;36.75
16793;BME280;8513;42.662;23.350;2022-07-23T07:35:05;95228.34;;;25.61;36.05
16793;BME280;8513;42.662;23.350;2022-07-23T07:37:31;95232.50;;;25.80;35.51
16793;BME280;8513;42.662;23.350;2022-07-23T07:39:57;95234.13;;;25.81;35.48
16793;BME280;8513;42.662;23.350;2022-07-23T07:42:22;95231.88;;;25.90;35.49
16793;BME280;8513;42.662;23.350;2022-07-23T07:44:47;95226.28;;;25.91;35.99
16793;BME280;8513;42.662;23.350;2022-07-23T07:47:13;95225.72;;;25.78;36.30
16793;BME280;8513;42.662;23.350;2022-07-23T07:49:41;95232.72;;;25.90;36.31
16793;BME280;8513;42.662;23.350;2022-07-23T07:52:06;95228.06;;;26.03;35.94
16793;BME280;8513;42.662;23.350;2022-07-23T07:54:32;95231.66;;;26.08;35.55
16793;BME280;8513;42.662;23.350;2022-07-23T07:56:58;95230.03;;;26.24;35.66
16793;BME280;8513;42.662;23.350;2022-07-23T07:59:23;95221.97;;;26.24;36.63
16793;BME280;8513;42.662;23.350;2022-07-23T08:01:49;95232.00;;;26.29;38.84
16793;BME280;8513;42.662;23.350;2022-07-23T08:04:14;95227.28;;;26.36;37.78
16793;BME280;8513;42.662;23.350;2022-07-23T08:06:39;95231.28;;;26.33;36.46
16793;BME280;8513;42.662;23.350;2022-07-23T08:09:05;95221.78;;;26.48;35.83
16793;BME280;8513;42.662;23.350;2022-07-23T08:11:30;95215.78;;;26.57;36.08
16793;BME280;8513;42.662;23.350;2022-07-23T08:13:56;95220.69;;;26.60;34.62
16793;BME280;8513;42.662;23.350;2022-07-23T08:16:21;95218.06;;;26.66;35.09
16793;BME280;8513;42.662;23.350;2022-07-23T08:18:47;95216.06;;;26.78;35.05
16793;BME280;8513;42.662;23.350;2022-07-23T08:21:12;95217.78;;;26.84;34.91
16793;BME280;8513;42.662;23.350;2022-07-23T08:23:38;95217.50;;;26.86;35.53
16793;BME280;8513;42.662;23.350;2022-07-23T08:26:03;95217.91;;;26.94;37.00
16793;BME280;8513;42.662;23.350;2022-07-23T08:28:29;95215.84;;;27.01;37.47
16793;BME280;8513;42.662;23.350;2022-07-23T08:30:58;95216.78;;;27.12;37.42
16793;BME280;8513;42.662;23.350;2022-07-23T08:33:24;95212.53;;;27.16;37.17
16793;BME280;8513;42.662;23.350;2022-07-23T08:35:50;95209.34;;;27.19;37.15
16793;BME280;8513;42.662;23.350;2022-07-23T08:38:19;95203.31;;;27.34;35.34
16793;BME280;8513;42.662;23.350;2022-07-23T08:40:56;95210.72;;;27.44;35.22
16793;BME280;8513;42.662;23.350;2022-07-23T08:43:30;95204.81;;;27.47;34.95
16793;BME280;8513;42.662;23.350;2022-07-23T08:45:58;95198.59;;;27.46;36.24
16793;BME280;8513;42.662;23.350;2022-07-23T08:48:26;95202.28;;;27.62;33.64
16793;BME280;8513;42.662;23.350;2022-07-23T08:50:55;95194.97;;;27.63;32.94
16793;BME280;8513;42.662;23.350;2022-07-23T08:53:22;95202.38;;;27.73;32.57
16793;BME280;8513;42.662;23.350;2022-07-23T08:55:50;95199.19;;;27.76;32.44
16793;BME280;8513;42.662;23.350;2022-07-23T08:58:17;95202.44;;;27.78;33.56
16793;BME280;8513;42.662;23.350;2022-07-23T09:00:43;95196.59;;;27.86;32.98
16793;BME280;8513;42.662;23.350;2022-07-23T09:03:17;95189.81;;;27.83;33.38
16793;BME280;8513;42.662;23.350;2022-07-23T09:05:43;95191.50;;;27.89;33.87
16793;BME280;8513;42.662;23.350;2022-07-23T09:13:32;95192.88;;;28.24;33.00
16793;BME280;8513;42.662;23.350;2022-07-23T09:21:10;95186.47;;;28.35;33.79
16793;BME280;8513;42.662;23.350;2022-07-23T09:23:46;95189.19;;;28.41;33.16
16793;BME280;8513;42.662;23.350;2022-07-23T09:29:36;95194.31;;;28.69;34.01
16793;BME280;8513;42.662;23.350;2022-07-23T09:31:59;95183.81;;;28.83;30.65
16793;BME280;8513;42.662;23.350;2022-07-23T09:34:32;95186.31;;;28.95;30.60
16793;BME280;8513;42.662;23.350;2022-07-23T09:37:18;95176.38;;;29.06;29.61
16793;BME280;8513;42.662;23.350;2022-07-23T09:39:45;95170.19;;;29.15;29.75
16793;BME280;8513;42.662;23.350;2022-07-23T09:42:15;95173.19;;;29.19;28.72
16793;BME280;8513;42.662;23.350;2022-07-23T09:44:46;95169.72;;;29.34;28.25
16793;BME280;8513;42.662;23.350;2022-07-23T09:47:12;95163.81;;;29.47;28.22
16793;BME280;8513;42.662;23.350;2022-07-23T09:49:37;95162.56;;;29.75;27.13
16793;BME280;8513;42.662;23.350;2022-07-23T09:52:03;95160.94;;;29.95;27.21
16793;BME280;8513;42.662;23.350;2022-07-23T09:54:39;95163.38;;;30.11;26.52
16793;BME280;8513;42.662;23.350;2022-07-23T09:57:08;95162.31;;;30.38;25.70
16793;BME280;8513;42.662;23.350;2022-07-23T09:59:38;95163.09;;;30.49;25.55
16793;BME280;8513;42.662;23.350;2022-07-23T10:02:05;95157.13;;;30.62;25.75
16793;BME280;8513;42.662;23.350;2022-07-23T10:04:32;95156.84;;;30.69;24.97
16793;BME280;8513;42.662;23.350;2022-07-23T10:07:03;95141.63;;;30.73;24.43
16793;BME280;8513;42.662;23.350;2022-07-23T10:09:36;95147.03;;;30.73;23.55
16793;BME280;8513;42.662;23.350;2022-07-23T10:12:09;95147.84;;;30.73;23.67
16793;BME280;8513;42.662;23.350;2022-07-23T10:14:42;95142.72;;;30.82;22.80
16793;BME280;8513;42.662;23.350;2022-07-23T10:17:08;95141.03;;;30.96;24.17
16793;BME280;8513;42.662;23.350;2022-07-23T10:19:34;95136.91;;;31.09;23.64
16793;BME280;8513;42.662;23.350;2022-07-23T10:22:36;95137.63;;;31.30;23.59
16793;BME280;8513;42.662;23.350;2022-07-23T10:33:21;95123.84;;;31.66;20.84
16793;BME280;8513;42.662;23.350;2022-07-23T10:35:55;95126.66;;;31.90;21.21
16793;BME280;8513;42.662;23.350;2022-07-23T10:38:27;95122.75;;;32.06;21.02
16793;BME280;8513;42.662;23.350;2022-07-23T10:43:21;95115.28;;;32.22;19.34
16793;BME280;8513;42.662;23.350;2022-07-23T10:45:46;95118.75;;;32.28;19.15
16793;BME280;8513;42.662;23.350;2022-07-23T10:48:23;95115.13;;;32.38;19.08
16793;BME280;8513;42.662;23.350;2022-07-23T10:51:13;95109.81;;;32.57;18.73
16793;BME280;8513;42.662;23.350;2022-07-23T10:59:14;95096.13;;;32.86;16.87
16793;BME280;8513;42.662;23.350;2022-07-23T11:01:40;95094.09;;;32.97;16.07
16793;BME280;8513;42.662;23.350;2022-07-23T11:04:05;95094.31;;;33.00;16.68
16793;BME280;8513;42.662;23.350;2022-07-23T11:07:06;95090.69;;;33.10;16.12
16793;BME280;8513;42.662;23.350;2022-07-23T11:15:10;95082.03;;;33.46;16.71
16793;BME280;8513;42.662;23.350;2022-07-23T11:20:21;95075.66;;;33.55;15.82
16793;BME280;8513;42.662;23.350;2022-07-23T11:22:50;95071.91;;;33.84;15.15
16793;BME280;8513;42.662;23.350;2022-07-23T11:27:49;95074.06;;;34.20;13.50
16793;BME280;8513;42.662;23.350;2022-07-23T11:32:53;95067.50;;;34.21;15.04
16793;BME280;8513;42.662;23.350;2022-07-23T11:35:21;95067.72;;;34.24;14.49
16793;BME280;8513;42.662;23.350;2022-07-23T11:37:47;95065.09;;;34.33;14.69
16793;BME280;8513;42.662;23.350;2022-07-23T11:40:16;95060.56;;;34.42;13.79
16793;BME280;8513;42.662;23.350;2022-07-23T11:42:59;95047.84;;;34.65;13.40
16793;BME280;8513;42.662;23.350;2022-07-23T11:45:31;95053.94;;;34.76;13.02
16793;BME280;8513;42.662;23.350;2022-07-23T11:47:56;95050.28;;;34.81;12.26
16793;BME280;8513;42.662;23.350;2022-07-23T11:50:23;95055.44;;;34.82;12.80
16793;BME280;8513;42.662;23.350;2022-07-23T11:52:50;95050.34;;;35.03;12.22
16793;BME280;8513;42.662;23.350;2022-07-23T11:55:16;95036.41;;;35.19;11.63
16793;BME280;8513;42.662;23.350;2022-07-23T11:57:42;95042.84;;;35.23;10.37
16793;BME280;8513;42.662;23.350;2022-07-23T12:00:11;95041.53;;;35.34;11.01
16793;BME280;8513;42.662;23.350;2022-07-23T12:02:38;95038.06;;;35.42;12.23
16793;BME280;8513;42.662;23.350;2022-07-23T12:05:04;95039.09;;;35.69;12.66
16793;BME280;8513;42.662;23.350;2022-07-23T12:07:39;95037.41;;;35.82;11.33
16793;BME280;8513;42.662;23.350;2022-07-23T12:12:42;95037.09;;;35.61;11.88
16793;BME280;8513;42.662;23.350;2022-07-23T12:15:10;95027.47;;;35.86;12.42
16793;BME280;8513;42.662;23.350;2022-07-23T12:17:37;95031.00;;;36.09;12.34
16793;BME280;8513;42.662;23.350;2022-07-23T12:20:06;95031.59;;;36.06;11.00
16793;BME280;8513;42.662;23.350;2022-07-23T12:22:40;95025.03;;;36.07;10.89
16793;BME280;8513;42.662;23.350;2022-07-23T12:25:09;95021.19;;;36.08;10.90
16793;BME280;8513;42.662;23.350;2022-07-23T12:27:35;95021.53;;;36.15;10.75
16793;BME280;8513;42.662;23.350;2022-07-23T12:30:21;95016.53;;;36.48;11.54
16793;BME280;8513;42.662;23.350;2022-07-23T12:32:48;95014.97;;;36.56;11.27
16793;BME280;8513;42.662;23.350;2022-07-23T12:35:15;95016.84;;;36.86;11.75
16793;BME280;8513;42.662;23.350;2022-07-23T12:37:42;95013.28;;;36.46;10.60
16793;BME280;8513;42.662;23.350;2022-07-23T12:40:31;94996.47;;;36.61;10.43
16793;BME280;8513;42.662;23.350;2022-07-23T12:43:30;94997.63;;;36.78;10.28
16793;BME280;8513;42.662;23.350;2022-07-23T12:50:58;94999.31;;;37.05;10.85
16793;BME280;8513;42.662;23.350;2022-07-23T12:53:32;94996.44;;;37.36;10.59
16793;BME280;8513;42.662;23.350;2022-07-23T12:56:07;95002.56;;;37.42;9.34
16793;BME280;8513;42.662;23.350;2022-07-23T12:58:53;95001.91;;;37.45;9.24
16793;BME280;8513;42.662;23.350;2022-07-23T13:06:20;94999.97;;;37.89;8.69
16793;BME280;8513;42.662;23.350;2022-07-23T13:08:45;94989.16;;;37.84;8.01
16793;BME280;8513;42.662;23.350;2022-07-23T13:11:10;94993.19;;;38.04;7.97
16793;BME280;8513;42.662;23.350;2022-07-23T13:13:36;94992.25;;;38.38;8.00
16793;BME280;8513;42.662;23.350;2022-07-23T13:16:02;94989.28;;;38.60;7.63
16793;BME280;8513;42.662;23.350;2022-07-23T13:18:28;94990.22;;;38.65;7.46
16793;BME280;8513;42.662;23.350;2022-07-23T13:20:54;94994.34;;;38.50;7.80
16793;BME280;8513;42.662;23.350;2022-07-23T13:23:21;94992.22;;;38.55;8.04
16793;BME280;8513;42.662;23.350;2022-07-23T13:25:47;94988.47;;;38.60;8.24
16793;BME280;8513;42.662;23.350;2022-07-23T13:28:14;94985.22;;;38.67;8.52
16793;BME280;8513;42.662;23.350;2022-07-23T13:30:41;94988.16;;;38.91;8.89
16793;BME280;8513;42.662;23.350;2022-07-23T13:33:07;94990.13;;;39.12;8.14
16793;BME280;8513;42.662;23.350;2022-07-23T13:35:34;94982.72;;;39.33;8.53
16793;BME280;8513;42.662;23.350;2022-07-23T13:38:03;94978.34;;;39.32;8.97
16793;BME280;8513;42.662;23.350;2022-07-23T13:40:29;94978.22;;;39.50;8.40
16793;BME280;8513;42.662;23.350;2022-07-23T13:42:54;94982.34;;;39.56;8.23
16793;BME280;8513;42.662;23.350;2022-07-23T13:45:20;94972.63;;;39.79;8.10
16793;BME280;8513;42.662;23.350;2022-07-23T13:47:45;94971.00;;;39.78;7.49
16793;BME280;8513;42.662;23.350;2022-07-23T13:50:11;94973.47;;;39.92;7.51
16793;BME280;8513;42.662;23.350;2022-07-23T13:52:37;94973.47;;;40.04;7.90
16793;BME280;8513;42.662;23.350;2022-07-23T13:55:06;94979.22;;;40.11;7.84